Impacts TAF Board
For situational awareness. Not to be used for flight planning purposes.
IDs:

KSEA - Seattle-Tacoma Intl, WA, US

Issued at 0857 UTC 16 Jul 2019
Updated at 1115 UTC 16 Jul 2019
Potential Impact None Slight Moderate High
Time<<17/12Z 17/13Z 17/14Z 17/15Z 17/16Z 17/17Z 17/18Z 17/19Z 17/20Z 17/21Z 17/22Z 17/23Z 18/00Z
Type
VIS
CIG
Cover
FltCat
WX
WDir
WSpd
WGst
Raw TAF
KSEA 160857Z 1609/1712 22005KT P6SM BKN040 BKN070
  TEMPO 1609/1612 BKN030 OVC060
  FM161200 21005KT P6SM OVC022
  FM161800 24007KT P6SM VCSH BKN035
  FM162300 25008KT P6SM VCSH BKN050 BKN120
  FM170900 21006KT P6SM OVC028


METAR Board
Radar Display
Forecast Discussion
For situational awareness. Not to be used for flight planning purposes.